createdAt,value
2023-05-20T13:18:04.583Z,87441.22
2023-05-20T13:20:35.383Z,87442.69
2023-05-20T13:23:03.101Z,87455.91
2023-05-20T13:25:30.574Z,87447.25
2023-05-20T13:27:58.225Z,87452.91
2023-05-20T13:30:25.795Z,87452.53
2023-05-20T13:32:53.314Z,87449.16
2023-05-20T13:35:21.621Z,87451.00
2023-05-20T13:37:49.320Z,87431.38
2023-05-20T13:40:17.062Z,87436.31
2023-05-20T13:42:44.516Z,87431.38
2023-05-20T13:45:12.233Z,87431.34
2023-05-20T13:47:39.777Z,87432.09
2023-05-20T13:50:08.426Z,87435.47
2023-05-20T13:52:35.946Z,87433.50
2023-05-20T13:55:04.055Z,87433.47
2023-05-20T13:57:31.317Z,87430.38
2023-05-20T13:59:58.667Z,87432.25
2023-05-20T14:02:26.245Z,87429.53
2023-05-20T14:04:53.701Z,87426.50
2023-05-20T14:07:21.358Z,87428.38
2023-05-20T14:09:48.741Z,87431.41
2023-05-20T14:12:16.234Z,87432.19
2023-05-20T14:14:44.126Z,87429.59
2023-05-20T14:17:16.593Z,87430.72
2023-05-20T14:19:43.936Z,87435.25
2023-05-20T14:22:11.256Z,87429.19
2023-05-20T14:24:38.928Z,87424.31
2023-05-20T14:27:06.400Z,87428.81
2023-05-20T14:29:33.715Z,87424.31
2023-05-20T14:32:01.267Z,87429.22
2023-05-20T14:34:28.652Z,87424.69
2023-05-20T14:36:55.969Z,87418.63
2023-05-20T14:39:23.580Z,87419.06
2023-05-20T14:41:51.051Z,87422.88
2023-05-20T14:44:18.294Z,87419.81
2023-05-20T14:46:45.693Z,87425.50
2023-05-20T14:49:13.106Z,87421.28
2023-05-20T14:51:40.482Z,87419.75
2023-05-20T14:54:08.265Z,87418.16
2023-05-20T14:56:35.621Z,87414.38
2023-05-20T14:59:03.331Z,87410.56
2023-05-20T15:01:30.783Z,87415.09
2023-05-20T15:03:58.379Z,87414.75
2023-05-20T15:06:26.336Z,87418.56
2023-05-20T15:08:53.693Z,87409.13
2023-05-20T15:11:20.981Z,87403.03
2023-05-20T15:13:48.349Z,87405.31
2023-05-20T15:16:16.004Z,87410.59
2023-05-20T15:18:43.437Z,87404.19
2023-05-20T15:21:10.701Z,87404.50
2023-05-20T15:23:38.219Z,87399.94
2023-05-20T15:26:07.260Z,87398.38
2023-05-20T15:28:34.551Z,87410.50
2023-05-20T15:31:01.858Z,87405.53
2023-05-20T15:33:29.666Z,87399.94
2023-05-20T15:35:57.111Z,87400.28
2023-05-20T15:38:24.483Z,87400.31
2023-05-20T15:40:51.785Z,87401.81
2023-05-20T15:43:20.022Z,87400.00
2023-05-20T15:45:47.439Z,87393.94
2023-05-20T15:48:15.598Z,87396.63
2023-05-20T15:50:43.368Z,87394.75
2023-05-20T15:53:11.183Z,87395.88
2023-05-20T15:55:38.776Z,87389.47
2023-05-20T15:58:06.258Z,87389.88
2023-05-20T16:00:33.989Z,87394.41
2023-05-20T16:03:01.498Z,87395.94
2023-05-20T16:05:29.015Z,87391.38
2023-05-20T16:07:56.323Z,87383.50
2023-05-20T16:10:25.880Z,87392.63
2023-05-20T16:12:53.766Z,87396.00
2023-05-20T16:15:21.186Z,87395.22
2023-05-20T16:17:48.535Z,87393.75
2023-05-20T16:20:15.991Z,87389.97
2023-05-20T16:22:43.329Z,87391.09
2023-05-20T16:25:10.762Z,87396.41
2023-05-20T16:27:41.253Z,87390.34
2023-05-20T16:30:14.461Z,87394.91
2023-05-20T16:32:42.094Z,87392.63
2023-05-20T16:35:09.902Z,87399.09
2023-05-20T16:37:37.437Z,87401.00
2023-05-20T16:40:06.158Z,87399.50
2023-05-20T16:42:33.478Z,87404.81
2023-05-20T16:45:00.796Z,87405.22
2023-05-20T16:47:28.052Z,87418.47
2023-05-20T16:49:55.377Z,87413.97
2023-05-20T16:52:23.090Z,87415.09
2023-05-20T16:54:50.371Z,87415.50
2023-05-20T16:57:17.857Z,87421.91
2023-05-20T16:59:46.017Z,87436.69
2023-05-20T17:02:13.415Z,87431.03
2023-05-20T17:04:40.985Z,87435.56
2023-05-20T17:07:08.525Z,87440.88
2023-05-20T17:09:36.645Z,87441.28
2023-05-20T17:12:05.524Z,87446.63
2023-05-20T17:14:33.285Z,87447.03
2023-05-20T17:17:00.858Z,87448.91
2023-05-20T17:19:39.546Z,87447.41
2023-05-20T17:22:06.970Z,87447.47
2023-05-20T17:24:35.947Z,87449.72
2023-05-20T17:27:03.665Z,87450.06
2023-05-20T17:29:31.765Z,87448.59
2023-05-20T17:31:59.196Z,87451.63
2023-05-20T17:34:26.559Z,87455.41
2023-05-20T17:36:53.881Z,87450.88
2023-05-20T17:39:21.249Z,87455.81
2023-05-20T17:41:48.706Z,87454.31
2023-05-20T17:44:17.057Z,87467.94
2023-05-20T17:46:44.401Z,87457.38
2023-05-20T17:49:11.792Z,87466.84
2023-05-20T17:51:39.227Z,87466.88
2023-05-20T17:54:06.660Z,87463.09
2023-05-20T17:56:34.279Z,87468.00
2023-05-20T17:59:01.665Z,87460.81
2023-05-20T18:01:29.519Z,87463.47
2023-05-20T18:03:57.308Z,87457.44
2023-05-20T18:06:25.059Z,87464.25
2023-05-20T18:08:52.460Z,87466.91
2023-05-20T18:11:20.266Z,87469.56
2023-05-20T18:13:47.637Z,87468.03
2023-05-20T18:16:15.412Z,87470.31
2023-05-20T18:18:44.080Z,87477.13
2023-05-20T18:21:11.607Z,87477.13
2023-05-20T18:23:39.089Z,87485.84
2023-05-20T18:26:06.413Z,87476.00
2023-05-20T18:28:33.734Z,87473.00
2023-05-20T18:31:01.078Z,87477.94
2023-05-20T18:33:28.837Z,87476.78
2023-05-20T18:35:56.378Z,87475.66
2023-05-20T18:38:23.886Z,87470.00
2023-05-20T18:40:51.494Z,87477.19
2023-05-20T18:43:18.826Z,87469.66
2023-05-20T18:45:46.202Z,87472.69
2023-05-20T18:48:20.147Z,87468.91
2023-05-20T18:50:53.202Z,87470.81
2023-05-20T18:53:20.926Z,87478.00
2023-05-20T18:55:48.740Z,87473.84
2023-05-20T18:58:16.062Z,87478.78
2023-05-20T19:00:43.441Z,87482.59
2023-05-20T19:03:11.164Z,87478.81
2023-05-20T19:05:38.891Z,87487.91
2023-05-20T19:08:06.592Z,87487.13
2023-05-20T19:10:33.891Z,87495.47
2023-05-20T19:13:01.259Z,87495.47
2023-05-20T19:15:28.572Z,87498.13
2023-05-20T19:17:56.902Z,87500.78
2023-05-20T19:20:24.367Z,87503.06
2023-05-20T19:22:52.349Z,87498.50
2023-05-20T19:25:20.593Z,87498.50
2023-05-20T19:27:48.218Z,87500.75
2023-05-20T19:30:15.568Z,87502.66
2023-05-20T19:32:42.969Z,87505.31
2023-05-20T19:35:10.496Z,87504.94
2023-05-20T19:37:37.884Z,87509.09
2023-05-20T19:40:05.894Z,87510.22
2023-05-20T19:42:33.381Z,87508.34
2023-05-20T19:45:00.680Z,87504.56
2023-05-20T19:47:28.058Z,87504.94
2023-05-20T19:49:55.648Z,87511.38
2023-05-20T19:52:23.368Z,87517.03
2023-05-20T19:54:50.801Z,87515.53
2023-05-20T19:57:18.130Z,87512.88
2023-05-20T19:59:45.497Z,87511.00
2023-05-20T20:02:12.774Z,87520.06
2023-05-20T20:04:40.152Z,87516.66
2023-05-20T20:07:07.707Z,87525.38
2023-05-20T20:09:36.113Z,87520.44
2023-05-20T20:12:03.805Z,87520.44
2023-05-20T20:14:32.073Z,87515.53
2023-05-20T20:16:59.874Z,87513.66
2023-05-20T20:19:27.511Z,87515.53
2023-05-20T20:21:55.603Z,87524.22
2023-05-20T20:24:23.648Z,87516.28
2023-05-20T20:26:52.453Z,87524.22
2023-05-20T20:29:22.878Z,87522.34
2023-05-20T20:31:50.231Z,87519.31
2023-05-20T20:34:17.809Z,87521.19
2023-05-20T20:36:46.431Z,87525.75
2023-05-20T20:39:14.726Z,87526.50
2023-05-20T20:41:42.050Z,87524.59
2023-05-20T20:44:09.411Z,87518.56
2023-05-20T20:46:36.717Z,87522.72
2023-05-20T20:49:04.246Z,87521.94
2023-05-20T20:51:31.578Z,87523.47
2023-05-20T20:53:58.859Z,87524.97
2023-05-20T20:56:26.381Z,87524.59
2023-05-20T20:58:53.719Z,87527.63
2023-05-20T21:01:21.187Z,87528.38
2023-05-20T21:03:48.693Z,87525.38
2023-05-20T21:06:16.367Z,87520.44
2023-05-20T21:08:43.666Z,87517.41
2023-05-20T21:11:11.337Z,87518.19
2023-05-20T21:13:39.592Z,87528.00
2023-05-20T21:16:07.271Z,87525.34
2023-05-20T21:18:35.116Z,87518.19
2023-05-20T21:21:02.382Z,87520.44
2023-05-20T21:23:29.691Z,87508.72
2023-05-20T21:25:56.949Z,87501.56
2023-05-20T21:28:24.862Z,87512.88
2023-05-20T21:30:52.143Z,87512.16
2023-05-20T21:33:19.506Z,87509.13
2023-05-20T21:35:47.004Z,87514.41
2023-05-20T21:38:14.559Z,87511.78
2023-05-20T21:40:42.205Z,87501.94
2023-05-20T21:43:09.586Z,87505.34
2023-05-20T21:45:37.364Z,87503.44
2023-05-20T21:48:05.445Z,87502.69
2023-05-20T21:50:32.771Z,87504.59
2023-05-20T21:53:00.121Z,87501.19
2023-05-20T21:55:27.525Z,87502.31
2023-05-20T21:57:54.875Z,87501.56
2023-05-20T22:00:22.202Z,87503.44
2023-05-20T22:02:49.735Z,87498.94
2023-05-20T22:05:17.331Z,87495.91
2023-05-20T22:07:44.647Z,87501.56
2023-05-20T22:10:12.375Z,87500.41
2023-05-20T22:12:44.036Z,87498.53
2023-05-20T22:15:11.923Z,87488.72
2023-05-20T22:17:39.797Z,87495.50
2023-05-20T22:20:08.247Z,87488.34
2023-05-20T22:22:35.577Z,87488.72
2023-05-20T22:25:03.929Z,87490.59
2023-05-20T22:27:32.041Z,87487.59
2023-05-20T22:29:59.405Z,87489.47
2023-05-20T22:32:26.848Z,87482.28
2023-05-20T22:34:54.573Z,87484.19
2023-05-20T22:37:21.917Z,87476.63
2023-05-20T22:39:49.269Z,87483.03
2023-05-20T22:42:16.524Z,87479.66
2023-05-20T22:44:43.785Z,87479.66
2023-05-20T22:47:11.185Z,87472.09
2023-05-20T22:49:38.507Z,87477.38
2023-05-20T22:52:06.806Z,87484.94
2023-05-20T22:54:37.076Z,87477.78
2023-05-20T22:57:04.863Z,87477.78
2023-05-20T22:59:32.328Z,87477.00
2023-05-20T23:01:59.763Z,87470.59
2023-05-20T23:04:27.059Z,87475.50
2023-05-20T23:06:54.414Z,87476.63
2023-05-20T23:09:21.731Z,87475.13
2023-05-20T23:11:49.097Z,87472.47
2023-05-20T23:14:16.410Z,87466.06
2023-05-20T23:16:43.840Z,87468.31
2023-05-20T23:19:11.528Z,87461.53
2023-05-20T23:21:38.961Z,87467.59
2023-05-20T23:24:06.827Z,87463.03
2023-05-20T23:26:34.196Z,87452.47
2023-05-20T23:29:01.673Z,87460.00
2023-05-20T23:31:29.000Z,87463.41
2023-05-20T23:33:56.784Z,87463.03
2023-05-20T23:36:25.524Z,87465.69
2023-05-20T23:38:53.232Z,87459.63
2023-05-20T23:41:20.788Z,87457.78
2023-05-20T23:43:48.365Z,87459.66
2023-05-20T23:46:15.915Z,87453.59
2023-05-20T23:48:43.269Z,87453.97
2023-05-20T23:51:11.306Z,87453.97
2023-05-20T23:53:38.510Z,87463.03
2023-05-20T23:56:06.134Z,87457.38
2023-05-20T23:58:34.210Z,87447.19
